createdAt,value
2018-11-07T00:00:15.272Z,67.10
2018-11-07T00:01:19.420Z,67.20
2018-11-07T00:02:23.547Z,67.10
2018-11-07T00:03:27.608Z,67.30
2018-11-07T00:04:31.740Z,67.20
2018-11-07T00:05:35.845Z,67.10
2018-11-07T00:06:39.947Z,67.10
2018-11-07T00:07:44.208Z,67.30
2018-11-07T00:08:48.314Z,67.40
2018-11-07T00:09:52.418Z,67.30
2018-11-07T00:10:56.652Z,67.20
2018-11-07T00:12:00.762Z,67.20
2018-11-07T00:13:05.238Z,67.70
2018-11-07T00:14:09.331Z,67.40
2018-11-07T00:15:14.722Z,67.40
2018-11-07T00:16:18.931Z,68.20
2018-11-07T00:17:23.092Z,67.50
2018-11-07T00:18:27.209Z,67.50
2018-11-07T00:19:31.289Z,67.70
2018-11-07T00:20:35.442Z,67.50
2018-11-07T00:21:39.499Z,67.50
2018-11-07T00:22:43.620Z,67.50
2018-11-07T00:23:47.680Z,67.90
2018-11-07T00:24:51.783Z,67.80
2018-11-07T00:25:55.874Z,67.80
2018-11-07T00:26:59.989Z,67.80
2018-11-07T00:28:04.124Z,67.60
2018-11-07T00:29:08.374Z,67.50
2018-11-07T00:30:12.592Z,67.90
2018-11-07T00:31:16.644Z,67.70
2018-11-07T00:32:20.662Z,67.70
2018-11-07T00:33:24.775Z,67.70
2018-11-07T00:34:28.904Z,67.80
2018-11-07T00:35:33.012Z,67.70
2018-11-07T00:36:37.056Z,67.80
2018-11-07T00:37:41.997Z,67.80
2018-11-07T00:38:46.036Z,67.80
2018-11-07T00:39:50.086Z,67.80
2018-11-07T00:40:54.208Z,67.90
2018-11-07T00:41:58.284Z,67.80
2018-11-07T00:43:02.416Z,67.80
2018-11-07T00:44:06.710Z,67.80
2018-11-07T00:45:12.576Z,67.70
2018-11-07T00:46:16.642Z,67.60
2018-11-07T00:47:20.819Z,67.90
2018-11-07T00:48:25.048Z,67.60
2018-11-07T00:49:29.149Z,67.80
2018-11-07T00:50:33.282Z,67.60
2018-11-07T00:51:37.418Z,67.80
2018-11-07T00:52:41.887Z,67.90
2018-11-07T00:53:45.934Z,67.80
2018-11-07T00:54:49.988Z,67.90
2018-11-07T00:55:54.004Z,67.70
2018-11-07T00:56:58.119Z,67.80
2018-11-07T00:58:02.232Z,67.90
2018-11-07T00:59:06.344Z,67.90
2018-11-07T01:00:15.729Z,67.90
2018-11-07T01:01:19.809Z,68.70
2018-11-07T01:02:23.916Z,68.00
2018-11-07T01:03:27.984Z,67.80
2018-11-07T01:04:32.131Z,67.80
2018-11-07T01:05:36.270Z,67.80
2018-11-07T01:06:40.360Z,68.00
2018-11-07T01:07:45.417Z,67.80
2018-11-07T01:08:50.053Z,67.80
2018-11-07T01:09:54.129Z,67.80
2018-11-07T01:10:58.273Z,67.90
2018-11-07T01:12:02.369Z,67.80
2018-11-07T01:13:06.432Z,67.80
2018-11-07T01:14:10.609Z,67.80
2018-11-07T01:15:14.924Z,67.80
2018-11-07T01:16:19.092Z,67.80
2018-11-07T01:17:23.160Z,67.80
2018-11-07T01:18:27.236Z,67.90
2018-11-07T01:19:31.322Z,67.90
2018-11-07T01:20:35.392Z,67.80
2018-11-07T01:21:39.556Z,67.70
2018-11-07T01:22:44.020Z,67.60
2018-11-07T01:23:48.166Z,67.50
2018-11-07T01:24:52.233Z,67.50
2018-11-07T01:25:56.387Z,67.50
2018-11-07T01:27:00.484Z,67.30
2018-11-07T01:28:04.724Z,67.40
2018-11-07T01:29:08.764Z,67.50
2018-11-07T01:30:14.032Z,67.40
2018-11-07T01:31:18.118Z,67.40
2018-11-07T01:32:22.207Z,67.40
2018-11-07T01:33:26.340Z,67.30
2018-11-07T01:34:30.446Z,67.30
2018-11-07T01:35:34.520Z,67.40
2018-11-07T01:36:38.640Z,67.30
2018-11-07T01:37:42.788Z,67.40
2018-11-07T01:38:46.973Z,67.30
2018-11-07T01:39:51.037Z,67.30
2018-11-07T01:40:55.162Z,67.20
2018-11-07T01:41:59.352Z,67.40
2018-11-07T01:43:03.549Z,67.30
2018-11-07T01:44:07.996Z,67.40
2018-11-07T01:45:12.694Z,67.40
2018-11-07T01:46:17.772Z,67.40
2018-11-07T01:47:22.148Z,67.40
2018-11-07T01:48:26.255Z,67.40
2018-11-07T01:49:30.255Z,67.40
2018-11-07T01:50:34.355Z,67.40
2018-11-07T01:51:38.485Z,67.40
2018-11-07T01:52:42.551Z,67.40
2018-11-07T01:53:46.836Z,67.40
2018-11-07T01:54:50.909Z,67.40
2018-11-07T01:55:54.986Z,67.40
2018-11-07T01:56:59.141Z,67.40
2018-11-07T01:58:03.262Z,67.30
2018-11-07T01:59:07.285Z,67.30
2018-11-07T02:00:12.244Z,67.30
2018-11-07T02:01:16.422Z,67.30
2018-11-07T02:02:20.623Z,67.20
2018-11-07T02:03:24.791Z,67.10
2018-11-07T02:04:28.925Z,67.20
2018-11-07T02:05:33.051Z,67.30
2018-11-07T02:06:37.208Z,67.30
2018-11-07T02:07:41.653Z,67.30
2018-11-07T02:08:45.762Z,67.30
2018-11-07T02:09:49.904Z,67.30
2018-11-07T02:10:53.990Z,67.30
2018-11-07T02:11:58.049Z,67.20
2018-11-07T02:13:02.229Z,67.30
2018-11-07T02:14:12.448Z,67.20
2018-11-07T02:15:22.521Z,67.20
2018-11-07T02:16:26.649Z,67.20
2018-11-07T02:17:30.720Z,67.30
2018-11-07T02:18:34.831Z,67.10
2018-11-07T02:19:39.060Z,67.20
2018-11-07T02:20:43.130Z,67.20
2018-11-07T02:21:47.222Z,67.20
2018-11-07T02:22:51.370Z,67.20
2018-11-07T02:23:55.499Z,67.30
2018-11-07T02:24:59.590Z,67.30
2018-11-07T02:26:03.768Z,67.20
2018-11-07T02:27:07.826Z,67.90
2018-11-07T02:28:11.896Z,67.20
2018-11-07T02:29:16.244Z,67.20
2018-11-07T02:30:20.347Z,67.20
2018-11-07T02:31:24.388Z,67.20
2018-11-07T02:32:28.507Z,67.20
2018-11-07T02:33:32.566Z,67.20
2018-11-07T02:34:36.720Z,67.30
2018-11-07T02:35:40.902Z,67.30
2018-11-07T02:36:44.987Z,67.40
2018-11-07T02:37:49.058Z,67.40
2018-11-07T02:38:53.149Z,67.50
2018-11-07T02:39:57.269Z,67.50
2018-11-07T02:41:01.316Z,67.50
2018-11-07T02:42:05.429Z,67.50
2018-11-07T02:43:09.550Z,67.50
2018-11-07T02:44:14.231Z,67.50
2018-11-07T02:45:18.305Z,67.50
2018-11-07T02:46:22.432Z,67.60
2018-11-07T02:47:26.535Z,67.60
2018-11-07T02:48:30.637Z,67.60
2018-11-07T02:49:34.690Z,67.70
2018-11-07T02:50:38.824Z,67.70
2018-11-07T02:51:42.951Z,67.60
2018-11-07T02:52:47.023Z,67.60
2018-11-07T02:53:51.183Z,67.70
2018-11-07T02:54:55.337Z,67.60
2018-11-07T02:55:59.453Z,67.70
2018-11-07T02:57:03.807Z,67.80
2018-11-07T02:58:07.906Z,67.80
2018-11-07T02:59:12.060Z,67.80
2018-11-07T03:00:16.201Z,68.00
2018-11-07T03:01:20.313Z,68.00
2018-11-07T03:02:24.387Z,68.00
2018-11-07T03:03:28.526Z,68.10
2018-11-07T03:04:32.583Z,68.20
2018-11-07T03:05:36.674Z,68.20
2018-11-07T03:06:40.836Z,68.10
2018-11-07T03:07:44.985Z,68.90
2018-11-07T03:08:49.070Z,68.10
2018-11-07T03:09:53.166Z,68.00
2018-11-07T03:10:57.291Z,68.10
2018-11-07T03:12:01.431Z,68.00
2018-11-07T03:13:05.699Z,68.00
2018-11-07T03:14:09.937Z,68.00
2018-11-07T03:15:14.035Z,68.00
2018-11-07T03:16:18.465Z,68.10
2018-11-07T03:17:22.580Z,68.10
2018-11-07T03:18:26.723Z,68.20
2018-11-07T03:19:30.834Z,68.20
2018-11-07T03:20:34.922Z,68.10
2018-11-07T03:21:38.999Z,68.20
2018-11-07T03:22:43.113Z,68.20
2018-11-07T03:23:47.213Z,68.20
2018-11-07T03:24:51.265Z,68.20
2018-11-07T03:25:55.424Z,68.10
2018-11-07T03:26:59.528Z,68.20
2018-11-07T03:28:03.640Z,68.30
2018-11-07T03:29:07.924Z,68.30
2018-11-07T03:30:12.034Z,68.20
2018-11-07T03:31:16.139Z,68.30
2018-11-07T03:32:21.172Z,68.20
2018-11-07T03:33:25.252Z,68.20
2018-11-07T03:34:29.395Z,68.00
2018-11-07T03:35:33.570Z,68.00
2018-11-07T03:36:37.597Z,67.90
2018-11-07T03:37:41.614Z,68.00
2018-11-07T03:38:45.705Z,68.00
2018-11-07T03:39:49.899Z,68.20
2018-11-07T03:40:53.951Z,68.20
2018-11-07T03:41:57.978Z,68.20
2018-11-07T03:43:02.181Z,68.30
2018-11-07T03:44:06.783Z,68.40
2018-11-07T03:45:10.928Z,68.50
2018-11-07T03:46:15.023Z,68.50
2018-11-07T03:48:30.561Z,68.50
2018-11-07T03:49:34.755Z,68.80
2018-11-07T03:50:38.872Z,68.60
2018-11-07T03:51:42.942Z,68.50
2018-11-07T03:52:47.076Z,68.60
2018-11-07T03:53:51.258Z,68.60
2018-11-07T03:54:55.389Z,68.90
2018-11-07T03:55:59.533Z,68.60
2018-11-07T03:57:03.638Z,68.70
2018-11-07T03:58:07.794Z,68.60
2018-11-07T03:59:11.887Z,68.60
2018-11-07T04:00:15.931Z,68.50
2018-11-07T04:01:20.017Z,68.60
2018-11-07T04:02:24.110Z,68.70
2018-11-07T04:03:34.601Z,68.70
2018-11-07T04:04:38.746Z,68.60
2018-11-07T04:05:42.842Z,68.50
2018-11-07T04:06:46.973Z,68.50
2018-11-07T04:07:51.081Z,68.60
2018-11-07T04:08:55.176Z,68.60
2018-11-07T04:09:59.296Z,68.70
2018-11-07T04:11:03.393Z,68.70
2018-11-07T04:12:07.543Z,68.70
2018-11-07T04:13:11.703Z,68.70
2018-11-07T04:14:15.870Z,68.80
2018-11-07T04:15:19.968Z,68.80
2018-11-07T04:16:24.141Z,68.80
2018-11-07T04:17:28.245Z,68.80
2018-11-07T04:18:32.381Z,69.00
2018-11-07T04:19:36.474Z,68.80
2018-11-07T04:20:40.635Z,68.80
2018-11-07T04:21:44.765Z,68.90
2018-11-07T04:22:49.036Z,69.00
2018-11-07T04:23:58.381Z,68.90
2018-11-07T04:25:02.560Z,69.00
2018-11-07T04:26:06.823Z,68.90
2018-11-07T04:27:10.966Z,68.90
2018-11-07T04:28:15.177Z,68.90
2018-11-07T04:29:19.281Z,68.90
2018-11-07T04:30:23.432Z,69.00
2018-11-07T04:31:27.702Z,68.80
2018-11-07T04:32:31.842Z,68.70
2018-11-07T04:33:35.861Z,68.70
2018-11-07T04:34:40.044Z,68.70
2018-11-07T04:35:44.126Z,68.70
2018-11-07T04:36:48.442Z,68.70
2018-11-07T04:37:52.876Z,68.80
2018-11-07T04:38:57.066Z,68.80
2018-11-07T04:40:01.214Z,68.80
2018-11-07T04:41:05.595Z,68.90
2018-11-07T04:42:09.760Z,69.00
2018-11-07T04:43:13.865Z,69.00
2018-11-07T04:44:17.937Z,68.90
2018-11-07T04:45:22.020Z,68.90
2018-11-07T04:46:26.119Z,68.80
2018-11-07T04:47:30.231Z,68.80
2018-11-07T04:48:34.398Z,68.70
2018-11-07T04:49:38.470Z,68.70
2018-11-07T04:50:42.591Z,68.70
2018-11-07T04:51:46.752Z,68.70
2018-11-07T04:52:50.871Z,68.70
2018-11-07T04:53:55.016Z,68.70
2018-11-07T04:54:59.460Z,68.60
2018-11-07T04:56:03.565Z,68.60
2018-11-07T04:57:07.801Z,68.50
2018-11-07T04:58:11.880Z,68.70
2018-11-07T04:59:15.951Z,68.70
2018-11-07T05:00:20.071Z,68.80
2018-11-07T05:01:24.217Z,68.80
2018-11-07T05:02:28.293Z,68.80
2018-11-07T05:03:32.470Z,68.80
2018-11-07T05:04:36.669Z,68.70
2018-11-07T05:05:40.816Z,68.70
2018-11-07T05:06:44.949Z,68.70
2018-11-07T05:07:48.961Z,68.70
2018-11-07T05:08:53.061Z,68.70
2018-11-07T05:09:57.225Z,68.50
2018-11-07T05:11:01.272Z,68.50
2018-11-07T05:12:06.076Z,68.50
2018-11-07T05:13:10.231Z,68.50
2018-11-07T05:14:14.410Z,68.60
2018-11-07T05:15:18.823Z,68.70
2018-11-07T05:16:22.902Z,68.70
2018-11-07T05:17:27.054Z,68.70
2018-11-07T05:18:31.086Z,68.80
2018-11-07T05:19:35.150Z,68.80
2018-11-07T05:20:39.232Z,68.80
2018-11-07T05:21:43.484Z,68.90
2018-11-07T05:22:47.527Z,68.90
2018-11-07T05:23:51.642Z,68.80
2018-11-07T05:24:55.753Z,68.80
2018-11-07T05:25:59.882Z,68.70
2018-11-07T05:27:03.979Z,68.70
2018-11-07T05:28:08.033Z,68.70
2018-11-07T05:29:12.231Z,68.80
2018-11-07T05:30:16.388Z,68.80
2018-11-07T05:31:20.504Z,68.80
2018-11-07T05:32:24.656Z,68.80
2018-11-07T05:33:28.747Z,68.80
2018-11-07T05:34:32.974Z,68.90
2018-11-07T05:35:37.063Z,68.90
2018-11-07T05:36:41.492Z,68.90
2018-11-07T05:37:45.548Z,68.90
2018-11-07T05:38:49.654Z,68.90
2018-11-07T05:39:53.825Z,68.90
2018-11-07T05:40:58.043Z,69.00
2018-11-07T05:42:02.042Z,68.90
2018-11-07T05:43:06.096Z,69.00
2018-11-07T05:44:10.167Z,68.90
2018-11-07T05:45:14.315Z,69.00
2018-11-07T05:46:18.446Z,68.90
2018-11-07T05:47:22.626Z,68.80
2018-11-07T05:48:26.849Z,68.80
2018-11-07T05:49:30.984Z,68.80
2018-11-07T05:50:35.082Z,69.00
2018-11-07T05:51:39.228Z,69.10
2018-11-07T05:52:43.272Z,69.10
2018-11-07T05:53:53.714Z,69.10
2018-11-07T05:54:57.757Z,69.20
2018-11-07T05:56:01.987Z,69.40
2018-11-07T05:57:06.160Z,69.40
2018-11-07T05:58:10.200Z,69.20
2018-11-07T05:59:14.262Z,69.20
2018-11-07T06:00:18.498Z,69.30
2018-11-07T06:01:22.565Z,69.20
2018-11-07T06:02:26.699Z,70.10
2018-11-07T06:03:30.790Z,69.20
2018-11-07T06:04:34.870Z,69.20
2018-11-07T06:05:39.017Z,69.10
2018-11-07T06:06:43.225Z,69.10
2018-11-07T06:07:47.372Z,69.10
2018-11-07T06:08:51.447Z,69.10
2018-11-07T06:09:55.520Z,69.10
2018-11-07T06:10:59.653Z,69.10
2018-11-07T06:12:03.848Z,69.10
2018-11-07T06:13:07.968Z,69.10
2018-11-07T06:14:12.125Z,69.10
2018-11-07T06:15:16.192Z,69.10
2018-11-07T06:16:20.365Z,69.10
2018-11-07T06:17:24.376Z,69.00
2018-11-07T06:18:28.442Z,68.90
2018-11-07T06:19:32.611Z,69.00
2018-11-07T06:20:36.661Z,69.00
2018-11-07T06:21:40.712Z,69.20
2018-11-07T06:22:44.972Z,69.20
2018-11-07T06:23:48.988Z,69.20
2018-11-07T06:24:53.207Z,69.30
2018-11-07T06:25:57.232Z,69.30
2018-11-07T06:27:01.327Z,69.30
2018-11-07T06:28:05.540Z,69.40
2018-11-07T06:29:09.717Z,70.30
2018-11-07T06:30:13.878Z,69.60
2018-11-07T06:31:18.106Z,69.50
2018-11-07T06:32:22.300Z,69.50
2018-11-07T06:33:26.450Z,69.50
2018-11-07T06:34:30.520Z,69.50
2018-11-07T06:35:34.830Z,69.40
2018-11-07T06:36:39.149Z,69.50
2018-11-07T06:37:43.285Z,69.50
2018-11-07T06:38:47.408Z,69.50
2018-11-07T06:39:51.546Z,69.50
2018-11-07T06:40:55.673Z,69.50
2018-11-07T06:41:59.859Z,69.60
2018-11-07T06:43:04.058Z,69.50
2018-11-07T06:44:08.889Z,69.50
2018-11-07T06:45:13.019Z,69.60
2018-11-07T06:46:17.146Z,69.60
2018-11-07T06:47:21.318Z,69.60
2018-11-07T06:48:25.474Z,69.70
2018-11-07T06:49:29.702Z,69.70
2018-11-07T06:50:33.734Z,69.70
2018-11-07T06:51:37.794Z,69.70
2018-11-07T06:52:42.037Z,69.90
2018-11-07T06:53:46.237Z,69.90
2018-11-07T06:54:50.312Z,70.00
2018-11-07T06:55:54.564Z,70.00
2018-11-07T06:56:58.798Z,70.00
2018-11-07T06:58:02.909Z,70.00
2018-11-07T06:59:07.136Z,70.10
2018-11-07T07:00:15.390Z,70.00
2018-11-07T07:01:19.537Z,70.00
2018-11-07T07:02:23.685Z,70.00
2018-11-07T07:03:27.797Z,69.90
2018-11-07T07:04:31.909Z,70.00
2018-11-07T07:05:36.020Z,70.00
2018-11-07T07:06:40.195Z,70.00
2018-11-07T07:07:44.258Z,70.00
2018-11-07T07:08:48.326Z,70.10
2018-11-07T07:09:52.512Z,70.10
2018-11-07T07:10:56.763Z,70.20
2018-11-07T07:12:00.918Z,70.20
2018-11-07T07:13:05.234Z,70.20
2018-11-07T07:14:09.486Z,70.20
2018-11-07T07:15:14.773Z,70.30
2018-11-07T07:16:19.020Z,70.30
2018-11-07T07:17:23.193Z,70.20
2018-11-07T07:18:27.350Z,70.20
2018-11-07T07:19:31.372Z,70.20
2018-11-07T07:20:35.470Z,70.20
2018-11-07T07:21:39.559Z,70.20
2018-11-07T07:22:44.167Z,70.20
2018-11-07T07:23:48.356Z,70.20
2018-11-07T07:24:52.474Z,70.20
2018-11-07T07:25:56.633Z,70.30
2018-11-07T07:27:00.732Z,70.40
2018-11-07T07:28:05.049Z,70.40
2018-11-07T07:29:09.164Z,70.40
2018-11-07T07:30:16.380Z,70.40
2018-11-07T07:31:20.551Z,70.50
2018-11-07T07:32:24.627Z,70.50
2018-11-07T07:33:28.763Z,70.50
2018-11-07T07:34:32.886Z,70.70
2018-11-07T07:35:37.884Z,70.70
2018-11-07T07:36:41.962Z,70.70
2018-11-07T07:37:46.188Z,70.70
2018-11-07T07:38:50.260Z,70.80
2018-11-07T07:39:54.310Z,70.80
2018-11-07T07:40:58.496Z,70.90
2018-11-07T07:42:02.664Z,70.80
2018-11-07T07:43:06.848Z,70.80
2018-11-07T07:44:10.982Z,70.80
2018-11-07T07:45:16.472Z,70.70
2018-11-07T07:46:20.560Z,70.70
2018-11-07T07:47:24.589Z,70.70
2018-11-07T07:48:28.700Z,70.70
2018-11-07T07:49:32.849Z,70.80
2018-11-07T07:50:36.903Z,70.80
2018-11-07T07:51:40.959Z,70.80
2018-11-07T07:52:45.348Z,70.80
2018-11-07T07:53:49.459Z,70.80
2018-11-07T07:54:53.581Z,70.80
2018-11-07T07:55:57.693Z,70.80
2018-11-07T07:57:01.800Z,70.90
2018-11-07T07:58:06.038Z,70.90
2018-11-07T07:59:10.096Z,70.90
2018-11-07T08:00:18.137Z,70.90
2018-11-07T08:01:22.288Z,70.90
2018-11-07T08:02:26.420Z,70.80
2018-11-07T08:03:30.525Z,70.80
2018-11-07T08:04:41.186Z,70.80
2018-11-07T08:05:45.324Z,70.90
2018-11-07T08:06:49.522Z,70.70
2018-11-07T08:07:53.734Z,70.70
2018-11-07T08:08:57.930Z,70.70
2018-11-07T08:10:02.030Z,70.70
2018-11-07T08:11:06.180Z,70.70
2018-11-07T08:12:10.285Z,70.60
2018-11-07T08:13:14.319Z,70.60
2018-11-07T08:14:18.491Z,70.60
2018-11-07T08:15:22.618Z,70.50
2018-11-07T08:16:27.151Z,70.50
2018-11-07T08:17:31.454Z,71.00
2018-11-07T08:18:35.586Z,70.40
2018-11-07T08:19:39.799Z,70.40
2018-11-07T08:20:43.959Z,70.40
2018-11-07T08:21:48.190Z,70.40
2018-11-07T08:22:52.332Z,70.30
2018-11-07T08:23:56.448Z,70.30
2018-11-07T08:25:00.556Z,70.30
2018-11-07T08:26:04.885Z,70.20
2018-11-07T08:27:08.968Z,70.20
2018-11-07T08:28:13.032Z,70.20
2018-11-07T08:29:17.079Z,70.20
2018-11-07T08:30:24.806Z,70.30
2018-11-07T08:31:28.919Z,70.30
2018-11-07T08:32:33.075Z,70.20
2018-11-07T08:33:37.251Z,70.10
2018-11-07T08:34:41.492Z,70.10
2018-11-07T08:35:45.559Z,70.10
2018-11-07T08:36:49.640Z,70.10
2018-11-07T08:37:53.663Z,70.00
2018-11-07T08:38:57.805Z,70.00
2018-11-07T08:40:01.919Z,70.00
2018-11-07T08:41:06.014Z,70.10
2018-11-07T08:42:10.104Z,70.10
2018-11-07T08:43:15.064Z,70.90
2018-11-07T08:44:19.153Z,70.00
2018-11-07T08:45:23.274Z,70.10
2018-11-07T08:46:27.384Z,70.10
2018-11-07T08:47:31.490Z,70.10
2018-11-07T08:48:35.494Z,70.10
2018-11-07T08:49:39.640Z,70.00
2018-11-07T08:50:43.776Z,70.80
2018-11-07T08:51:47.876Z,70.00
2018-11-07T08:52:52.018Z,70.00
2018-11-07T08:53:56.111Z,70.10
2018-11-07T08:55:00.295Z,70.00
2018-11-07T08:56:04.683Z,70.00
2018-11-07T08:57:08.854Z,70.00
2018-11-07T08:58:12.938Z,70.00
2018-11-07T08:59:17.072Z,69.80
2018-11-07T09:00:22.455Z,69.80
2018-11-07T09:01:26.696Z,69.70
2018-11-07T09:02:30.846Z,69.50
2018-11-07T09:03:34.982Z,69.60
2018-11-07T09:04:39.107Z,69.60
2018-11-07T09:05:43.195Z,69.50
2018-11-07T09:06:47.387Z,69.60
2018-11-07T09:07:51.509Z,69.50
2018-11-07T09:08:55.756Z,69.60
2018-11-07T09:09:59.925Z,69.60
2018-11-07T09:11:04.036Z,69.50
2018-11-07T09:12:08.263Z,69.60
2018-11-07T09:13:12.353Z,69.70
2018-11-07T09:14:16.471Z,69.70
2018-11-07T09:15:21.947Z,69.90
2018-11-07T09:16:26.156Z,70.20
2018-11-07T09:17:30.353Z,70.40
2018-11-07T09:18:34.428Z,70.90
2018-11-07T09:19:38.650Z,71.40
2018-11-07T09:20:42.733Z,71.90
2018-11-07T09:21:46.929Z,72.10
2018-11-07T09:22:51.041Z,72.40
2018-11-07T09:23:55.254Z,72.60
2018-11-07T09:24:59.392Z,73.00
2018-11-07T09:26:03.483Z,73.10
2018-11-07T09:27:07.608Z,73.00
2018-11-07T09:28:11.974Z,73.10
2018-11-07T09:29:16.066Z,72.90
2018-11-07T09:30:21.452Z,72.80
2018-11-07T09:31:25.548Z,72.50
2018-11-07T09:32:29.760Z,71.80
2018-11-07T09:33:33.926Z,71.20
2018-11-07T09:34:38.058Z,70.70
2018-11-07T09:35:42.232Z,70.40
2018-11-07T09:36:46.374Z,70.00
2018-11-07T09:37:50.596Z,69.60
2018-11-07T09:38:54.776Z,68.80
2018-11-07T09:39:58.842Z,68.20
2018-11-07T09:41:02.992Z,67.40
2018-11-07T09:42:07.175Z,66.40
2018-11-07T09:43:11.481Z,65.20
2018-11-07T09:44:15.585Z,64.30
2018-11-07T09:45:20.954Z,63.70
2018-11-07T09:46:25.076Z,62.90
2018-11-07T09:47:29.253Z,62.30
2018-11-07T09:48:33.466Z,61.90
2018-11-07T09:49:37.539Z,61.20
2018-11-07T09:50:41.659Z,60.50
2018-11-07T09:51:45.884Z,59.70
2018-11-07T09:52:50.024Z,58.90
2018-11-07T09:53:54.265Z,58.30
2018-11-07T09:54:58.356Z,57.80
2018-11-07T09:56:02.504Z,57.40
2018-11-07T09:57:06.825Z,57.00
2018-11-07T09:58:11.019Z,56.70
2018-11-07T09:59:15.173Z,56.10
2018-11-07T10:00:20.329Z,56.00
2018-11-07T10:01:24.438Z,55.50
2018-11-07T10:02:28.573Z,55.10
2018-11-07T10:03:32.718Z,54.40
2018-11-07T10:04:36.797Z,54.00
2018-11-07T10:05:41.080Z,53.60
2018-11-07T10:06:45.204Z,53.20
2018-11-07T10:07:49.276Z,52.90
2018-11-07T10:08:53.470Z,52.70
2018-11-07T10:09:58.168Z,52.10
2018-11-07T10:11:02.271Z,51.70
2018-11-07T10:12:06.503Z,51.30
2018-11-07T10:13:10.597Z,50.80
2018-11-07T10:14:14.769Z,50.40
2018-11-07T10:15:19.209Z,50.10
2018-11-07T10:16:23.338Z,49.90
2018-11-07T10:17:27.449Z,49.70
2018-11-07T10:18:31.645Z,49.40
2018-11-07T10:19:35.729Z,49.10
2018-11-07T10:20:39.900Z,48.80
2018-11-07T10:21:43.887Z,48.50
2018-11-07T10:22:48.626Z,48.30
2018-11-07T10:23:52.727Z,47.90
2018-11-07T10:24:56.819Z,47.40
2018-11-07T10:26:00.899Z,47.30
2018-11-07T10:28:09.020Z,46.00
2018-11-07T10:29:12.911Z,46.20
2018-11-07T10:30:18.338Z,46.00
2018-11-07T10:31:22.433Z,45.90
2018-11-07T10:32:26.632Z,45.60
2018-11-07T10:33:30.873Z,45.10
2018-11-07T10:34:41.675Z,46.00
2018-11-07T10:35:45.730Z,44.50
2018-11-07T10:36:49.821Z,44.40
2018-11-07T10:37:53.932Z,43.80
2018-11-07T10:38:58.082Z,43.40
2018-11-07T10:40:02.368Z,42.90
2018-11-07T10:41:06.470Z,42.70
2018-11-07T10:42:10.525Z,42.40
2018-11-07T10:43:14.598Z,42.20
2018-11-07T10:44:18.825Z,41.60
2018-11-07T10:45:22.863Z,41.10
2018-11-07T10:46:27.144Z,40.90
2018-11-07T10:47:31.300Z,40.60
2018-11-07T10:48:35.568Z,40.30
2018-11-07T10:49:39.633Z,40.30
2018-11-07T10:50:43.762Z,40.80
2018-11-07T10:51:47.958Z,39.90
2018-11-07T10:52:52.135Z,39.70
2018-11-07T10:53:56.206Z,39.50
2018-11-07T10:55:00.305Z,39.20
2018-11-07T10:56:04.679Z,39.00
2018-11-07T10:57:08.962Z,38.90
2018-11-07T10:58:13.092Z,38.60
2018-11-07T10:59:17.242Z,38.30
2018-11-07T11:00:26.706Z,38.20
2018-11-07T11:01:36.219Z,37.80
2018-11-07T11:02:45.642Z,37.60
2018-11-07T11:03:49.852Z,37.60
2018-11-07T11:04:54.129Z,37.40
2018-11-07T11:05:58.164Z,37.30
2018-11-07T11:07:02.235Z,37.20
2018-11-07T11:08:06.664Z,37.00
2018-11-07T11:09:10.824Z,37.00
2018-11-07T11:10:15.122Z,37.00
2018-11-07T11:11:19.450Z,37.00
2018-11-07T11:12:24.226Z,36.80
2018-11-07T11:13:28.315Z,36.70
2018-11-07T11:14:32.558Z,36.60
2018-11-07T11:15:36.807Z,36.40
2018-11-07T11:16:40.844Z,36.00
2018-11-07T11:17:44.918Z,35.70
2018-11-07T11:18:49.047Z,35.50
2018-11-07T11:19:53.149Z,35.50
2018-11-07T11:20:57.269Z,35.30
2018-11-07T11:22:01.344Z,35.20
2018-11-07T11:23:05.486Z,35.00
2018-11-07T11:24:09.660Z,35.00
2018-11-07T11:25:13.688Z,34.90
2018-11-07T11:26:17.840Z,34.70
2018-11-07T11:27:22.065Z,34.70
2018-11-07T11:28:26.193Z,34.70
2018-11-07T11:29:30.356Z,34.60
2018-11-07T11:30:34.414Z,35.50
2018-11-07T11:31:38.558Z,34.30
2018-11-07T11:32:42.626Z,34.20
2018-11-07T11:33:46.843Z,34.20
2018-11-07T11:34:50.985Z,34.00
2018-11-07T11:35:55.170Z,33.90
2018-11-07T11:36:59.736Z,33.70
2018-11-07T11:38:04.985Z,33.50
2018-11-07T11:39:10.628Z,33.30
2018-11-07T11:40:15.232Z,33.20
2018-11-07T11:41:19.376Z,33.10
2018-11-07T11:42:23.442Z,32.90
2018-11-07T11:43:27.550Z,32.70
2018-11-07T11:44:31.782Z,32.40
2018-11-07T11:45:35.905Z,32.30
2018-11-07T11:46:40.058Z,32.20
2018-11-07T11:47:44.636Z,32.10
2018-11-07T11:48:48.727Z,32.00
2018-11-07T11:49:52.855Z,31.80
2018-11-07T11:50:56.990Z,31.70
2018-11-07T11:52:01.112Z,31.60
2018-11-07T11:53:05.371Z,31.50
2018-11-07T11:54:09.478Z,31.30
2018-11-07T11:55:13.776Z,31.10
2018-11-07T11:56:17.879Z,31.90
2018-11-07T11:57:22.526Z,30.80
2018-11-07T11:58:26.658Z,30.70
2018-11-07T11:59:30.835Z,30.70
2018-11-07T12:00:34.798Z,30.60
2018-11-07T12:01:38.920Z,30.50
2018-11-07T12:02:43.642Z,30.30
2018-11-07T12:03:47.742Z,30.20
2018-11-07T12:04:51.921Z,30.00
2018-11-07T12:05:56.120Z,30.00
2018-11-07T12:07:00.238Z,29.90
2018-11-07T12:08:04.422Z,29.80
2018-11-07T12:09:09.131Z,29.80
2018-11-07T12:10:17.977Z,29.80
2018-11-07T12:11:22.413Z,29.70
2018-11-07T12:12:26.529Z,29.60
2018-11-07T12:13:30.830Z,29.50
2018-11-07T12:14:34.872Z,29.40
2018-11-07T12:15:39.015Z,29.20
2018-11-07T12:16:43.092Z,29.10
2018-11-07T12:17:47.243Z,29.10
2018-11-07T12:18:51.355Z,29.10
2018-11-07T12:19:55.520Z,28.90
2018-11-07T12:20:59.716Z,28.90
2018-11-07T12:22:03.860Z,28.80
2018-11-07T12:23:14.661Z,28.70
2018-11-07T12:24:18.924Z,28.70
2018-11-07T12:25:23.101Z,28.60
2018-11-07T12:26:27.269Z,28.60
2018-11-07T12:27:31.622Z,28.50
2018-11-07T12:28:35.778Z,28.50
2018-11-07T12:29:39.862Z,28.50
2018-11-07T12:30:44.074Z,28.40
2018-11-07T12:31:48.168Z,28.40
2018-11-07T12:32:53.468Z,28.30
2018-11-07T12:33:57.818Z,28.40
2018-11-07T12:35:02.113Z,28.30
2018-11-07T12:36:06.367Z,28.20
2018-11-07T12:37:10.564Z,28.20
2018-11-07T12:38:14.710Z,28.10
2018-11-07T12:39:18.891Z,28.10
2018-11-07T12:40:23.044Z,28.00
2018-11-07T12:41:27.380Z,28.00
2018-11-07T12:42:31.584Z,28.00
2018-11-07T12:43:35.664Z,28.00
2018-11-07T12:44:39.806Z,28.00
2018-11-07T12:45:43.949Z,28.00
2018-11-07T12:46:48.105Z,28.40
2018-11-07T12:47:52.270Z,27.90
2018-11-07T12:48:56.476Z,27.80
2018-11-07T12:50:00.767Z,27.70
2018-11-07T12:51:04.907Z,27.60
2018-11-07T12:52:09.758Z,27.60
2018-11-07T12:53:13.903Z,27.30
2018-11-07T12:54:17.993Z,27.50
2018-11-07T12:55:22.531Z,27.30
2018-11-07T12:56:26.627Z,27.80
2018-11-07T12:57:30.734Z,27.40
2018-11-07T12:58:34.772Z,27.40
2018-11-07T12:59:38.944Z,27.40
2018-11-07T13:00:43.112Z,27.50
2018-11-07T13:01:47.395Z,27.50
2018-11-07T13:02:51.675Z,27.60
2018-11-07T13:03:55.770Z,27.70
2018-11-07T13:04:59.858Z,27.70
2018-11-07T13:06:04.069Z,27.80
2018-11-07T13:07:08.135Z,27.80
2018-11-07T13:08:12.392Z,27.80
2018-11-07T13:09:16.550Z,27.80
2018-11-07T13:10:21.355Z,27.80
2018-11-07T13:11:25.462Z,27.70
2018-11-07T13:12:29.511Z,27.70
2018-11-07T13:13:33.716Z,27.60
2018-11-07T13:14:37.811Z,27.60
2018-11-07T13:15:42.054Z,27.50
2018-11-07T13:16:46.318Z,27.40
2018-11-07T13:17:51.149Z,27.20
2018-11-07T13:18:55.268Z,27.10
2018-11-07T13:19:59.392Z,27.20
2018-11-07T13:21:03.596Z,27.20
2018-11-07T13:22:07.741Z,27.30
2018-11-07T13:23:12.052Z,27.40
2018-11-07T13:24:16.464Z,27.60
2018-11-07T13:25:21.073Z,27.70
2018-11-07T13:26:25.326Z,27.80
2018-11-07T13:27:29.504Z,27.80
2018-11-07T13:28:33.866Z,27.80
2018-11-07T13:29:41.001Z,27.90
2018-11-07T13:30:47.598Z,27.90
2018-11-07T13:31:53.836Z,27.90
2018-11-07T13:32:58.880Z,27.90
2018-11-07T13:34:03.670Z,27.90
2018-11-07T13:35:08.998Z,27.90
2018-11-07T13:36:13.101Z,27.90
2018-11-07T13:37:17.563Z,27.90
2018-11-07T13:38:21.646Z,28.00
2018-11-07T13:39:25.647Z,28.10
2018-11-07T13:40:29.727Z,28.20
2018-11-07T13:41:33.835Z,28.30
2018-11-07T13:42:37.929Z,28.30
2018-11-07T13:43:42.069Z,28.30
2018-11-07T13:44:46.264Z,28.40
2018-11-07T13:45:50.515Z,28.50
2018-11-07T13:46:54.688Z,28.30
2018-11-07T13:47:58.943Z,28.70
2018-11-07T13:49:03.065Z,28.70
2018-11-07T13:50:07.463Z,28.70